Time;durP1;ratioP1;P1;durP2;ratioP2;P2;SDS_P1;SDS_P2;PMS_P1;PMS_P2;Temp;Humidity;BMP_temperature;BMP_pressure;BME280_temperature;BME280_humidity;BME280_pressure;Samples;Min_cycle;Max_cycle;Signal;HPM_P1;HPM_P2
2023/05/25 00:02:23;;;;;;;11.25;5.13;;;;;;;10.86;88.41;102193.25;4961328;28;20158;-68
2023/05/25 00:04:49;;;;;;;13.63;4.03;;;;;;;10.80;88.14;102193.78;4954923;28;20043;-67
2023/05/25 00:07:15;;;;;;;10.90;4.50;;;;;;;10.76;88.65;102198.38;4959630;28;20030;-67
2023/05/25 00:09:43;;;;;;;10.25;3.97;;;;;;;10.74;88.85;102186.47;4959833;28;20413;-67
2023/05/25 00:12:09;;;;;;;11.88;4.35;;;;;;;10.69;88.79;102187.66;4973906;28;20050;-67
2023/05/25 00:14:34;;;;;;;8.75;4.28;;;;;;;10.67;89.05;102191.31;4957482;28;20042;-68
2023/05/25 00:17:02;;;;;;;13.90;3.80;;;;;;;10.64;89.17;102192.41;4963519;28;20038;-68
2023/05/25 00:19:31;;;;;;;15.45;4.30;;;;;;;10.61;89.27;102191.81;4961606;28;20363;-67
2023/05/25 00:22:00;;;;;;;9.70;4.50;;;;;;;10.58;89.12;102186.88;4959372;28;20045;-67
2023/05/25 00:24:27;;;;;;;10.90;4.15;;;;;;;10.52;89.39;102190.78;4954186;28;20440;-67
2023/05/25 00:26:52;;;;;;;10.60;4.43;;;;;;;10.49;89.56;102189.25;4965214;28;20034;-67
2023/05/25 00:29:18;;;;;;;11.52;3.83;;;;;;;10.46;89.92;102191.28;4962776;28;20039;-67
2023/05/25 00:31:43;;;;;;;9.73;4.70;;;;;;;10.41;90.24;102186.44;4970747;28;20031;-67
2023/05/25 00:34:09;;;;;;;9.88;4.45;;;;;;;10.37;90.50;102181.63;4958319;28;20053;-67
2023/05/25 00:36:34;;;;;;;16.08;5.80;;;;;;;10.32;90.59;102182.81;4956248;28;20027;-67
2023/05/25 00:39:00;;;;;;;10.63;4.10;;;;;;;10.29;90.46;102183.00;4973030;28;20066;-67
2023/05/25 00:41:26;;;;;;;10.23;4.03;;;;;;;10.24;90.88;102187.72;4958292;28;20026;-68
2023/05/25 00:43:52;;;;;;;13.07;4.65;;;;;;;10.19;91.03;102187.28;4954253;28;20045;-67
2023/05/25 00:46:18;;;;;;;14.63;4.75;;;;;;;10.16;91.26;102192.69;4966021;28;20030;-67
2023/05/25 00:48:44;;;;;;;10.35;4.32;;;;;;;10.13;91.42;102193.75;4955078;28;20090;-67
2023/05/25 00:51:13;;;;;;;13.82;4.43;;;;;;;10.10;91.57;102193.19;4969332;28;20031;-67
2023/05/25 00:53:38;;;;;;;11.80;4.55;;;;;;;10.07;91.63;102190.81;4975149;28;20050;-67
2023/05/25 00:56:14;;;;;;;11.25;4.72;;;;;;;10.03;91.57;102189.41;4967988;28;20070;-68
2023/05/25 00:58:43;;;;;;;16.00;4.82;;;;;;;9.99;91.76;102188.00;4967144;28;20045;-67
2023/05/25 01:01:10;;;;;;;11.80;4.82;;;;;;;9.94;91.98;102186.59;4969062;28;20053;-68
2023/05/25 01:03:38;;;;;;;11.13;4.97;;;;;;;9.89;92.00;102190.47;4944513;28;20177;-69
2023/05/25 02:10:24;;;;;;;13.50;5.43;;;;;;;8.98;95.68;102220.47;4956552;28;20492;-68
2023/05/25 02:12:50;;;;;;;19.58;5.70;;;;;;;8.95;96.08;102218.94;4956468;28;20023;-68
2023/05/25 02:15:17;;;;;;;21.52;7.45;;;;;;;8.94;96.33;102221.66;4962437;28;20282;-68
2023/05/25 02:17:43;;;;;;;12.93;5.80;;;;;;;8.92;96.21;102231.28;4960497;28;20034;-68
2023/05/25 02:20:10;;;;;;;10.77;5.38;;;;;;;8.89;96.44;102219.41;4959678;28;20046;-68
2023/05/25 02:22:36;;;;;;;15.60;6.55;;;;;;;8.83;96.48;102221.59;4978387;28;20037;-68
2023/05/25 02:25:02;;;;;;;14.02;6.00;;;;;;;8.79;96.73;102222.75;4975521;28;20729;-68
2023/05/25 02:27:28;;;;;;;13.73;5.90;;;;;;;8.74;97.02;102213.56;4964945;28;20089;-68
2023/05/25 02:29:53;;;;;;;11.13;5.32;;;;;;;8.72;97.27;102217.19;4944358;28;20493;-68
2023/05/25 02:32:20;;;;;;;17.58;6.05;;;;;;;8.71;97.23;102218.94;4959525;28;20073;-68
2023/05/25 02:34:46;;;;;;;15.48;5.50;;;;;;;8.71;97.58;102210.38;4975104;28;20039;-68
2023/05/25 02:37:12;;;;;;;13.02;6.15;;;;;;;8.72;97.43;102214.59;4958882;28;20543;-68
2023/05/25 02:39:38;;;;;;;16.63;6.18;;;;;;;8.69;97.54;102220.00;4939860;28;20054;-68
2023/05/25 02:42:04;;;;;;;12.32;5.78;;;;;;;8.69;97.98;102213.06;4940950;28;20041;-68
2023/05/25 02:44:30;;;;;;;9.88;6.15;;;;;;;8.68;98.20;102226.94;4957720;28;20070;-68
2023/05/25 02:46:56;;;;;;;15.38;6.25;;;;;;;8.66;98.22;102221.03;4972060;28;20393;-68
2023/05/25 02:49:22;;;;;;;12.48;6.03;;;;;;;8.61;98.47;102228.31;4962020;28;20572;-68
2023/05/25 02:51:47;;;;;;;12.63;5.78;;;;;;;8.56;98.71;102230.38;4976143;28;20536;-68
2023/05/25 02:54:13;;;;;;;25.13;6.75;;;;;;;8.52;99.07;102229.75;4976601;28;20051;-68
2023/05/25 02:56:38;;;;;;;18.55;5.80;;;;;;;8.51;99.35;102229.88;4975395;28;20041;-68
2023/05/25 02:59:04;;;;;;;12.40;5.95;;;;;;;8.50;99.56;102229.06;4975076;28;20062;-68
2023/05/25 03:01:33;;;;;;;13.27;5.57;;;;;;;8.48;99.88;102232.69;4961873;28;20042;-69
2023/05/25 03:03:59;;;;;;;19.80;5.65;;;;;;;8.48;99.96;102240.44;4977104;28;20031;-68
2023/05/25 03:06:26;;;;;;;13.38;5.82;;;;;;;8.46;99.94;102237.97;4966213;28;20086;-68
2023/05/25 03:08:55;;;;;;;13.50;6.00;;;;;;;8.44;99.89;102238.97;4961331;28;20536;-68
2023/05/25 03:11:21;;;;;;;16.83;6.45;;;;;;;8.41;99.94;102244.34;4966175;28;20066;-68
2023/05/25 03:13:49;;;;;;;20.10;6.25;;;;;;;8.38;100.00;102237.63;4961372;28;20173;-68
2023/05/25 03:16:16;;;;;;;16.38;6.72;;;;;;;8.36;100.00;102240.31;4975946;28;20062;-68
2023/05/25 03:18:41;;;;;;;17.80;6.43;;;;;;;8.35;100.00;102238.66;4961357;28;20388;-68
2023/05/25 03:21:08;;;;;;;12.02;5.78;;;;;;;8.34;99.97;102242.19;4964506;28;20250;-68
2023/05/25 03:23:33;;;;;;;14.43;6.35;;;;;;;8.32;99.90;102238.88;4963573;28;20049;-68
2023/05/25 03:26:02;;;;;;;12.15;5.80;;;;;;;8.31;99.97;102236.41;4974766;28;20077;-68
2023/05/25 03:28:27;;;;;;;13.38;6.38;;;;;;;8.28;99.89;102245.19;4944263;28;20471;-69
2023/05/25 03:30:53;;;;;;;17.23;7.18;;;;;;;8.25;99.93;102242.81;4977276;28;20037;-69
2023/05/25 03:33:18;;;;;;;16.15;6.68;;;;;;;8.22;100.00;102243.03;4976728;28;20706;-70
2023/05/25 03:35:47;;;;;;;12.18;6.00;;;;;;;8.16;100.00;102244.28;4960491;28;20030;-70
2023/05/25 03:38:12;;;;;;;19.23;6.10;;;;;;;8.12;100.00;102242.84;4975842;28;20039;-70
2023/05/25 03:40:38;;;;;;;12.77;5.63;;;;;;;8.07;100.00;102250.06;4964196;28;20030;-68
2023/05/25 03:43:03;;;;;;;13.95;5.75;;;;;;;8.06;100.00;102257.91;4964759;28;20034;-68
2023/05/25 03:45:29;;;;;;;16.30;6.22;;;;;;;8.04;100.00;102257.19;4972124;28;20042;-67
2023/05/25 03:47:55;;;;;;;13.25;5.85;;;;;;;8.02;100.00;102259.88;4960800;28;20401;-67
2023/05/25 03:50:20;;;;;;;14.27;5.72;;;;;;;8.02;100.00;102262.47;4960871;28;20505;-68
2023/05/25 03:52:46;;;;;;;14.35;6.43;;;;;;;8.00;100.00;102261.75;4963116;28;20039;-67
2023/05/25 03:55:13;;;;;;;16.90;7.03;;;;;;;8.03;100.00;102277.03;4956998;28;20078;-67
2023/05/25 03:57:40;;;;;;;16.95;6.18;;;;;;;8.02;100.00;102280.53;4973748;28;20030;-67
2023/05/25 04:00:07;;;;;;;21.23;6.80;;;;;;;7.99;100.00;102276.41;4975862;28;20046;-67
2023/05/25 04:02:38;;;;;;;19.58;7.57;;;;;;;7.99;100.00;102273.84;4965959;28;20046;-67
2023/05/25 04:05:04;;;;;;;21.45;7.28;;;;;;;7.98;100.00;102279.09;4964278;28;20207;-67
2023/05/25 04:07:30;;;;;;;17.52;7.72;;;;;;;7.98;100.00;102285.09;4954575;28;20146;-67
2023/05/25 04:09:58;;;;;;;18.20;7.65;;;;;;;7.96;100.00;102281.78;4939406;28;20041;-68
2023/05/25 04:12:24;;;;;;;19.33;7.25;;;;;;;7.97;100.00;102290.38;4958256;28;20035;-68
2023/05/25 04:14:51;;;;;;;18.73;8.02;;;;;;;7.98;100.00;102294.59;4972894;28;20035;-67
2023/05/25 04:17:17;;;;;;;20.00;7.50;;;;;;;8.01;100.00;102291.81;4970951;28;20074;-68
2023/05/25 04:19:43;;;;;;;14.00;7.18;;;;;;;8.00;100.00;102292.75;4953628;28;20046;-68
2023/05/25 04:22:09;;;;;;;21.85;7.80;;;;;;;8.02;100.00;102290.88;4954246;28;20027;-68
2023/05/25 04:24:34;;;;;;;17.63;8.15;;;;;;;8.06;100.00;102291.50;4971010;28;20054;-68
2023/05/25 04:27:01;;;;;;;19.52;7.65;;;;;;;8.10;100.00;102292.94;4945938;28;20042;-67
2023/05/25 04:29:27;;;;;;;19.05;7.88;;;;;;;8.13;100.00;102296.16;4954231;28;20046;-68
2023/05/25 04:32:13;;;;;;;21.00;7.63;;;;;;;8.17;100.00;102299.34;4969986;28;20042;-67
2023/05/25 04:34:47;;;;;;;18.40;7.40;;;;;;;8.23;100.00;102286.03;4960790;28;20537;-68
2023/05/25 04:37:29;;;;;;;18.60;6.90;;;;;;;8.25;100.00;102296.25;4971419;28;20397;-68
2023/05/25 04:39:57;;;;;;;19.73;7.68;;;;;;;8.26;100.00;102296.16;4970585;28;20109;-68
2023/05/25 04:42:23;;;;;;;26.02;7.88;;;;;;;8.29;100.00;102295.13;4986025;23;20042;-69
2023/05/25 04:44:54;;;;;;;21.58;7.25;;;;;;;8.33;100.00;102301.75;4996825;28;20434;-69
2023/05/25 04:47:21;;;;;;;17.85;7.07;;;;;;;8.36;100.00;102302.38;5016108;28;20039;-69
2023/05/25 04:49:46;;;;;;;16.10;7.68;;;;;;;8.42;100.00;102295.13;5000455;28;20052;-69
2023/05/25 04:52:12;;;;;;;17.17;7.40;;;;;;;8.47;100.00;102293.88;5010991;28;20030;-69
2023/05/25 04:54:38;;;;;;;21.02;8.40;;;;;;;8.51;100.00;102299.66;5000947;28;20039;-69
2023/05/25 04:57:03;;;;;;;17.60;7.70;;;;;;;8.57;100.00;102309.59;5002820;28;20034;-69
2023/05/25 04:59:30;;;;;;;17.63;7.40;;;;;;;8.61;100.00;102312.78;5012008;28;20046;-69
2023/05/25 05:01:56;;;;;;;17.67;7.78;;;;;;;8.66;100.00;102316.72;5013932;28;20033;-69
2023/05/25 05:04:22;;;;;;;19.45;8.45;;;;;;;8.73;100.00;102314.53;5002030;28;20056;-69
2023/05/25 05:06:48;;;;;;;23.27;9.00;;;;;;;8.83;100.00;102320.69;5006353;28;20033;-69
2023/05/25 05:09:17;;;;;;;22.77;8.63;;;;;;;8.90;100.00;102336.63;4984581;28;20499;-69
2023/05/25 05:11:45;;;;;;;22.88;8.60;;;;;;;8.97;100.00;102335.28;5004134;28;20438;-69
2023/05/25 05:14:12;;;;;;;13.02;7.07;;;;;;;9.04;100.00;102340.81;4995641;28;20109;-69
2023/05/25 05:16:38;;;;;;;21.42;8.30;;;;;;;9.12;100.00;102335.97;5003847;28;20081;-69
2023/05/25 05:19:04;;;;;;;21.08;8.50;;;;;;;9.19;100.00;102341.50;4999559;28;20042;-69
2023/05/25 05:21:31;;;;;;;19.13;7.88;;;;;;;9.29;100.00;102338.16;5001887;28;20464;-69
2023/05/25 05:23:56;;;;;;;24.63;9.32;;;;;;;9.34;100.00;102341.25;4999091;28;20142;-69
2023/05/25 05:26:22;;;;;;;20.13;8.18;;;;;;;9.44;100.00;102346.59;5007601;28;20030;-69
2023/05/25 05:28:48;;;;;;;17.90;8.13;;;;;;;9.52;100.00;102341.66;5010390;28;20048;-69
2023/05/25 05:31:16;;;;;;;27.02;8.80;;;;;;;9.60;100.00;102342.88;4998669;28;20038;-69
2023/05/25 05:33:42;;;;;;;21.83;8.73;;;;;;;9.77;100.00;102346.81;4983272;28;20427;-69
2023/05/25 05:36:08;;;;;;;24.35;8.93;;;;;;;9.78;99.85;102351.09;5011143;28;20048;-69
2023/05/25 05:38:34;;;;;;;24.17;8.90;;;;;;;9.84;99.09;102351.44;4984275;28;20081;-69
2023/05/25 05:41:01;;;;;;;26.38;8.88;;;;;;;9.97;98.87;102353.13;4997969;28;20029;-69
2023/05/25 05:43:27;;;;;;;19.00;8.45;;;;;;;10.08;97.82;102353.16;4996999;28;20034;-69
2023/05/25 05:45:52;;;;;;;21.83;8.32;;;;;;;10.22;97.58;102357.31;5004424;28;20602;-69
2023/05/25 05:48:18;;;;;;;34.40;8.73;;;;;;;10.33;96.35;102347.78;5006078;28;20060;-69
2023/05/25 05:50:44;;;;;;;23.33;7.80;;;;;;;10.52;95.66;102348.97;5012320;28;20554;-69
2023/05/25 05:53:11;;;;;;;22.67;8.13;;;;;;;10.68;94.97;102356.41;4980719;28;20116;-69
2023/05/25 05:55:37;;;;;;;19.33;7.75;;;;;;;10.78;94.16;102356.53;5004279;28;20041;-70
2023/05/25 05:58:02;;;;;;;19.77;8.02;;;;;;;10.97;92.71;102361.94;5000222;28;20041;-69
2023/05/25 06:00:28;;;;;;;26.23;8.70;;;;;;;11.03;92.03;102358.03;5003402;28;20062;-69
2023/05/25 06:02:53;;;;;;;24.27;8.63;;;;;;;11.24;91.38;102365.88;5005145;28;20545;-69
2023/05/25 06:05:22;;;;;;;16.65;7.22;;;;;;;11.39;90.58;102367.25;4997311;28;20034;-69
2023/05/25 06:07:51;;;;;;;22.50;8.57;;;;;;;11.58;90.10;102360.56;4996726;28;20069;-70
2023/05/25 06:10:18;;;;;;;21.40;7.40;;;;;;;11.78;89.26;102364.16;5010788;28;20041;-69
2023/05/25 06:12:44;;;;;;;18.15;8.07;;;;;;;12.00;87.50;102361.47;5012067;28;20026;-69
2023/05/25 06:15:10;;;;;;;21.27;8.32;;;;;;;12.24;86.05;102365.56;5011320;28;20046;-69
2023/05/25 06:17:37;;;;;;;23.00;8.00;;;;;;;12.45;85.51;102368.97;5011307;28;20045;-69
2023/05/25 06:20:04;;;;;;;28.65;8.70;;;;;;;12.60;84.72;102364.22;5014270;28;20057;-69
2023/05/25 06:22:30;;;;;;;20.80;8.05;;;;;;;12.85;84.22;102368.13;5002462;28;20029;-69
2023/05/25 06:24:56;;;;;;;22.02;8.43;;;;;;;13.01;83.10;102365.00;4999221;28;20322;-69
2023/05/25 06:27:22;;;;;;;28.48;7.63;;;;;;;13.16;80.94;102365.44;4998732;28;20031;-69
2023/05/25 06:29:47;;;;;;;35.22;9.30;;;;;;;12.93;80.29;102369.25;4996895;28;20380;-70
2023/05/25 06:32:13;;;;;;;21.95;7.55;;;;;;;13.17;79.81;102372.31;4996606;28;20033;-69
2023/05/25 06:34:39;;;;;;;20.08;7.78;;;;;;;13.53;80.05;102374.44;5012657;28;20116;-69
2023/05/25 06:37:05;;;;;;;26.77;7.75;;;;;;;13.48;78.22;102376.63;4997211;28;20049;-70
2023/05/25 06:39:31;;;;;;;22.60;8.18;;;;;;;13.41;77.47;102379.78;5001278;28;20308;-70
2023/05/25 06:41:57;;;;;;;17.38;7.90;;;;;;;13.73;77.53;102377.84;4982608;28;20308;-70
2023/05/25 06:44:28;;;;;;;23.33;9.05;;;;;;;14.14;76.42;102381.91;4995909;28;20491;-70
2023/05/25 06:46:53;;;;;;;20.67;6.95;;;;;;;14.41;74.72;102375.94;5010041;28;20096;-70
2023/05/25 06:49:19;;;;;;;27.10;10.77;;;;;;;14.38;74.27;102378.81;4993448;28;20407;-70
2023/05/25 06:51:44;;;;;;;19.70;7.82;;;;;;;14.35;72.93;102383.50;4997926;28;20041;-70
2023/05/25 06:54:12;;;;;;;21.50;6.93;;;;;;;14.70;73.01;102388.06;5013359;28;20054;-70
2023/05/25 06:56:38;;;;;;;24.98;6.47;;;;;;;15.17;71.18;102381.91;5010329;28;20515;-70
2023/05/25 06:59:03;;;;;;;21.02;6.82;;;;;;;15.24;69.81;102377.72;4996452;28;20105;-70
2023/05/25 07:01:29;;;;;;;27.80;6.93;;;;;;;15.53;68.58;102387.13;5002436;28;20399;-70
2023/05/25 07:03:54;;;;;;;23.30;7.25;;;;;;;15.43;69.21;102394.25;5003291;28;20518;-71
2023/05/25 07:06:20;;;;;;;22.65;7.38;;;;;;;15.38;68.47;102384.22;4998167;28;20124;-69
2023/05/25 07:08:45;;;;;;;18.52;6.93;;;;;;;15.91;67.07;102378.13;4998892;28;20213;-70
2023/05/25 07:11:12;;;;;;;16.80;6.97;;;;;;;16.21;67.06;102386.50;5012356;28;20030;-70
2023/05/25 07:13:38;;;;;;;23.10;6.95;;;;;;;15.83;65.01;102385.13;5010117;28;20057;-71
2023/05/25 07:16:04;;;;;;;23.38;6.82;;;;;;;16.07;64.55;102393.13;5001485;28;20037;-71
2023/05/25 07:18:30;;;;;;;20.48;6.80;;;;;;;16.30;65.71;102384.78;5000065;28;20499;-70
2023/05/25 07:20:55;;;;;;;28.63;7.18;;;;;;;16.00;63.79;102391.28;5000425;28;20033;-70
2023/05/25 07:23:21;;;;;;;26.67;8.43;;;;;;;15.99;63.43;102387.84;5000910;28;20049;-70
2023/05/25 07:25:47;;;;;;;17.60;6.57;;;;;;;16.69;63.47;102386.91;5004374;28;20033;-70
2023/05/25 07:28:12;;;;;;;28.92;7.70;;;;;;;16.55;62.66;102393.56;4993412;28;20046;-70
2023/05/25 07:30:39;;;;;;;26.38;7.85;;;;;;;16.74;61.39;102388.09;5003397;28;20099;-70
2023/05/25 07:33:04;;;;;;;23.80;8.60;;;;;;;17.01;61.24;102388.00;5009466;28;20066;-70
2023/05/25 07:35:30;;;;;;;19.77;8.25;;;;;;;17.40;60.88;102387.44;5011833;28;20574;-70
2023/05/25 07:38:00;;;;;;;20.40;6.72;;;;;;;17.94;61.06;102390.41;5014370;28;20038;-68
2023/05/25 07:40:26;;;;;;;21.90;7.80;;;;;;;18.41;58.55;102396.69;5001120;28;20986;-67
2023/05/25 07:42:52;;;;;;;29.42;9.60;;;;;;;17.93;57.10;102395.81;5004653;28;20042;-68
2023/05/25 07:45:17;;;;;;;19.55;7.07;;;;;;;18.02;57.59;102395.63;4994177;28;20488;-68
2023/05/25 07:47:43;;;;;;;28.02;9.45;;;;;;;18.27;55.82;102400.81;5003302;28;20069;-68
2023/05/25 07:50:09;;;;;;;23.27;8.43;;;;;;;18.26;55.89;102393.94;4998749;28;20062;-68
2023/05/25 07:52:35;;;;;;;21.42;8.68;;;;;;;18.36;55.87;102393.75;5015220;28;20031;-69
2023/05/25 07:55:00;;;;;;;19.52;6.15;;;;;;;18.98;54.78;102390.38;4998088;28;20037;-68
2023/05/25 07:57:26;;;;;;;21.15;7.78;;;;;;;19.17;54.01;102391.75;4997299;28;20435;-68
2023/05/25 07:59:51;;;;;;;19.77;7.50;;;;;;;19.62;53.15;102397.97;5003319;28;20225;-68
2023/05/25 08:02:17;;;;;;;18.45;6.85;;;;;;;18.48;55.38;102406.34;5012608;28;20202;-68
2023/05/25 08:04:42;;;;;;;25.33;7.88;;;;;;;17.85;56.89;102409.75;5001606;28;20556;-68
2023/05/25 08:07:07;;;;;;;21.10;7.38;;;;;;;17.04;59.35;102408.66;5004321;28;20076;-69
2023/05/25 08:09:33;;;;;;;26.48;7.30;;;;;;;16.62;60.91;102412.09;5003663;28;20041;-68
2023/05/25 08:11:58;;;;;;;15.43;5.88;;;;;;;16.84;61.27;102410.72;5002199;28;20084;-68
2023/05/25 08:14:24;;;;;;;17.98;5.93;;;;;;;16.85;61.28;102404.50;5001238;28;20095;-68
2023/05/25 08:16:50;;;;;;;15.98;6.30;;;;;;;17.83;58.73;102406.44;5010430;28;20047;-68
2023/05/25 08:19:15;;;;;;;23.73;6.90;;;;;;;18.00;56.46;102408.09;4994584;28;20503;-68
2023/05/25 08:21:41;;;;;;;18.30;5.50;;;;;;;18.08;55.69;102407.25;4995894;28;20049;-68
2023/05/25 08:24:07;;;;;;;15.82;5.28;;;;;;;17.59;57.05;102408.06;4998486;28;20060;-68
2023/05/25 08:26:35;;;;;;;11.15;5.20;;;;;;;18.39;53.95;102401.28;4999323;28;20026;-68
2023/05/25 08:29:04;;;;;;;19.58;7.25;;;;;;;18.41;54.19;102402.75;4999070;28;20080;-68
2023/05/25 08:31:33;;;;;;;18.33;6.60;;;;;;;19.16;54.09;102406.72;5010399;28;20124;-68
2023/05/25 08:33:59;;;;;;;18.52;7.47;;;;;;;19.16;53.33;102419.03;5000899;28;20143;-69
2023/05/25 08:36:25;;;;;;;21.08;6.75;;;;;;;18.88;52.85;102406.38;4997763;28;20041;-69
2023/05/25 08:38:50;;;;;;;21.27;7.90;;;;;;;18.42;54.41;102409.66;5012790;28;20069;-68
2023/05/25 08:41:16;;;;;;;17.23;6.20;;;;;;;18.61;54.80;102405.81;4995048;28;20026;-68
2023/05/25 08:43:41;;;;;;;16.20;6.60;;;;;;;18.24;55.00;102409.88;4995385;28;20128;-69
2023/05/25 08:46:08;;;;;;;22.13;8.18;;;;;;;18.15;55.37;102408.25;4997725;28;20035;-69
2023/05/25 08:48:35;;;;;;;18.83;7.25;;;;;;;17.74;56.11;102410.06;4996190;28;20042;-68
2023/05/25 08:51:05;;;;;;;21.30;8.13;;;;;;;17.67;56.57;102404.66;4997214;28;20052;-68
2023/05/25 08:53:34;;;;;;;14.98;7.07;;;;;;;17.94;56.38;102407.97;5010757;28;20132;-68
2023/05/25 08:56:01;;;;;;;17.98;7.90;;;;;;;18.57;53.58;102406.31;5003044;28;20038;-69
2023/05/25 08:58:42;;;;;;;22.38;10.52;;;;;;;18.92;52.46;102410.28;4988722;28;20062;-69
2023/05/25 09:01:08;;;;;;;22.65;10.40;;;;;;;19.65;52.16;102402.91;4999151;28;20044;-69
2023/05/25 09:03:35;;;;;;;20.08;9.00;;;;;;;20.00;51.78;102408.53;5000193;28;20042;-68
2023/05/25 09:06:01;;;;;;;23.90;11.90;;;;;;;19.22;52.09;102408.63;4995120;28;20040;-69
2023/05/25 09:08:27;;;;;;;21.95;12.85;;;;;;;18.85;51.32;102407.56;5009944;28;20314;-69
2023/05/25 09:10:55;;;;;;;24.42;12.95;;;;;;;19.30;52.66;102405.13;4994940;28;20026;-68
2023/05/25 09:13:20;;;;;;;25.65;13.48;;;;;;;19.65;51.51;102401.09;4999616;28;20040;-68
2023/05/25 09:15:46;;;;;;;23.42;12.75;;;;;;;20.06;50.62;102410.47;5002455;28;20313;-69
2023/05/25 09:18:12;;;;;;;27.80;13.38;;;;;;;20.05;50.19;102400.09;5001577;28;20040;-69
2023/05/25 09:20:37;;;;;;;19.38;12.65;;;;;;;20.00;49.50;102414.63;5009501;28;20033;-69
2023/05/25 09:23:04;;;;;;;22.50;12.23;;;;;;;19.61;50.06;102418.22;5011060;28;20506;-69
2023/05/25 09:25:30;;;;;;;21.88;12.77;;;;;;;19.94;49.19;102410.06;5001320;28;20431;-68
2023/05/25 09:27:57;;;;;;;24.05;12.93;;;;;;;19.93;49.30;102404.97;5014117;28;20030;-71
2023/05/25 09:30:23;;;;;;;26.55;14.52;;;;;;;19.38;50.17;102407.72;5002406;28;20038;-69
2023/05/25 09:32:50;;;;;;;24.65;11.13;;;;;;;19.71;52.05;102404.81;4999218;28;20030;-68
2023/05/25 09:35:16;;;;;;;19.25;11.27;;;;;;;19.72;50.77;102408.25;4999944;28;20036;-69
2023/05/25 09:37:42;;;;;;;21.98;9.75;;;;;;;19.58;51.38;102408.03;5011522;28;20041;-68
2023/05/25 09:40:09;;;;;;;18.98;9.65;;;;;;;19.40;51.72;102416.25;4996146;28;20058;-68
2023/05/25 09:42:35;;;;;;;17.15;8.48;;;;;;;19.88;50.56;102405.53;5000213;28;20030;-68
2023/05/25 09:45:02;;;;;;;17.70;9.95;;;;;;;19.65;51.24;102419.50;5004990;28;20045;-68
2023/05/25 09:47:28;;;;;;;17.67;10.00;;;;;;;19.05;51.06;102417.63;5015883;28;20495;-68
2023/05/25 09:49:54;;;;;;;19.58;9.88;;;;;;;19.01;52.15;102424.22;5000499;28;20049;-69
2023/05/25 09:52:20;;;;;;;25.88;12.25;;;;;;;18.91;52.52;102421.81;4993368;28;20037;-68
2023/05/25 09:54:50;;;;;;;17.10;10.95;;;;;;;18.72;54.21;102419.56;4998885;28;20050;-69
2023/05/25 09:57:17;;;;;;;19.88;10.85;;;;;;;18.43;53.70;102415.72;5000413;28;20398;-69
2023/05/25 09:59:44;;;;;;;17.63;11.13;;;;;;;18.39;55.03;102430.19;5000160;28;20085;-68
2023/05/25 10:02:10;;;;;;;17.45;12.15;;;;;;;18.49;53.79;102425.53;4997361;28;20499;-68
2023/05/25 10:04:36;;;;;;;22.85;11.57;;;;;;;18.45;53.42;102424.25;5011103;28;20103;-68
2023/05/25 10:07:03;;;;;;;18.65;10.88;;;;;;;18.40;54.25;102432.66;4998936;28;20309;-68
2023/05/25 10:09:29;;;;;;;15.65;10.13;;;;;;;18.11;54.21;102427.94;4999946;28;20760;-68
2023/05/25 10:11:58;;;;;;;18.70;11.20;;;;;;;18.05;55.88;102432.03;5015975;28;20045;-68
2023/05/25 10:14:28;;;;;;;13.80;9.75;;;;;;;18.15;55.55;102431.84;5009284;28;20049;-68
2023/05/25 10:16:57;;;;;;;18.45;10.20;;;;;;;17.64;56.61;102431.22;5001144;28;20091;-71
2023/05/25 10:19:32;;;;;;;13.60;8.52;;;;;;;17.77;57.02;102430.72;5009274;28;20053;-70
2023/05/25 10:22:06;;;;;;;19.88;9.00;;;;;;;17.94;55.52;102429.75;5010506;28;20030;-70
2023/05/25 10:24:59;;;;;;;14.95;8.73;;;;;;;18.60;54.60;102427.81;4994017;28;20038;-70
2023/05/25 10:27:28;;;;;;;;;;;;;;;18.49;54.51;102431.59;5000738;28;20395;-70
2023/05/25 10:29:58;;;;;;;19.23;7.80;;;;;;;18.46;55.45;102437.22;5001693;28;19924;-70
2023/05/25 10:32:26;;;;;;;16.90;9.93;;;;;;;18.09;55.94;102445.66;4999044;28;20029;-70
2023/05/25 10:34:52;;;;;;;16.27;10.68;;;;;;;17.93;55.37;102443.84;4997044;28;20432;-68
2023/05/25 10:37:17;;;;;;;16.65;9.20;;;;;;;17.92;55.75;102444.03;5001656;28;20060;-67
2023/05/25 10:39:44;;;;;;;14.52;8.45;;;;;;;17.81;56.46;102445.16;5001362;28;20048;-68
2023/05/25 10:42:11;;;;;;;17.45;9.25;;;;;;;17.66;56.19;102451.03;5021345;22;20037;-68
2023/05/25 10:44:40;;;;;;;15.75;8.85;;;;;;;17.51;56.82;102450.84;4979592;28;20058;-68
2023/05/25 10:47:06;;;;;;;13.50;7.28;;;;;;;17.36;57.65;102444.59;4978374;28;20120;-68
2023/05/25 10:49:34;;;;;;;12.02;6.15;;;;;;;17.44;57.89;102462.16;4985323;28;20112;-68
2023/05/25 10:52:01;;;;;;;7.85;5.10;;;;;;;17.51;58.83;102452.66;4994890;28;20527;-68
2023/05/25 10:54:30;;;;;;;14.43;5.88;;;;;;;17.69;58.36;102450.72;4953972;28;20050;-68
2023/05/25 10:57:16;;;;;;;18.70;8.15;;;;;;;17.45;57.11;102453.31;4961651;28;20042;-68
2023/05/25 10:59:44;;;;;;;10.98;6.75;;;;;;;17.35;58.22;102453.47;4945201;28;20580;-68
2023/05/25 11:02:10;;;;;;;14.27;6.15;;;;;;;17.51;58.14;102450.84;4958198;28;20370;-69
2023/05/25 11:04:36;;;;;;;16.05;7.35;;;;;;;17.28;58.26;102436.75;4958596;28;20125;-68
2023/05/25 11:07:01;;;;;;;17.73;9.25;;;;;;;17.30;57.65;102450.50;4973225;28;20315;-68
2023/05/25 11:09:30;;;;;;;15.05;8.55;;;;;;;17.15;57.21;102447.69;4942589;28;20136;-68
2023/05/25 11:11:57;;;;;;;12.55;7.78;;;;;;;17.38;58.63;102452.31;4962262;28;20030;-69
2023/05/25 11:14:28;;;;;;;13.85;7.20;;;;;;;17.54;58.62;102443.63;4962339;28;20129;-68
2023/05/25 11:17:03;;;;;;;13.27;6.43;;;;;;;17.81;59.21;102453.84;4974180;28;20031;-68
2023/05/25 11:19:46;;;;;;;14.40;7.15;;;;;;;17.46;57.46;102445.28;4976246;28;20397;-69
2023/05/25 11:22:13;;;;;;;11.65;5.13;;;;;;;17.39;58.85;102448.72;4961902;28;20054;-68
2023/05/25 11:24:40;;;;;;;16.08;7.60;;;;;;;17.60;57.88;102443.00;4955220;28;20450;-68
2023/05/25 11:27:07;;;;;;;7.25;4.95;;;;;;;17.96;58.11;102445.34;4957668;28;20515;-68
2023/05/25 11:29:35;;;;;;;10.95;4.85;;;;;;;18.24;58.45;102435.31;4962757;28;20105;-68
2023/05/25 11:32:01;;;;;;;12.70;4.57;;;;;;;18.34;57.17;102438.56;4958786;28;20409;-68
2023/05/25 11:34:27;;;;;;;12.63;6.32;;;;;;;18.08;57.37;102430.88;4945792;28;20051;-68
2023/05/25 11:37:00;;;;;;;16.00;7.10;;;;;;;18.09;57.68;102428.09;4961970;28;20031;-68
2023/05/25 11:39:26;;;;;;;27.88;12.30;;;;;;;18.22;57.08;102427.59;4961607;28;20058;-68
2023/05/25 11:42:05;;;;;;;23.83;14.38;;;;;;;17.99;54.73;102432.72;4958804;28;20153;-69
2023/05/25 11:44:32;;;;;;;18.00;11.57;;;;;;;18.12;54.66;102426.13;4944169;28;20486;-69
2023/05/25 11:47:12;;;;;;;19.13;9.98;;;;;;;18.29;55.93;102425.94;4954646;28;20039;-69
2023/05/25 11:49:42;;;;;;;23.17;11.77;;;;;;;18.09;55.26;102427.28;4944417;28;20051;-69
2023/05/25 11:52:09;;;;;;;17.73;11.20;;;;;;;17.94;56.00;102428.94;4964748;28;20084;-69
2023/05/25 11:54:35;;;;;;;16.45;11.27;;;;;;;17.51;56.55;102429.88;4966646;28;20501;-68
2023/05/25 11:57:01;;;;;;;18.77;11.18;;;;;;;17.68;57.47;102416.78;4944420;28;20038;-69
2023/05/25 11:59:27;;;;;;;26.42;12.23;;;;;;;18.14;56.86;102418.91;4929727;28;20047;-69
2023/05/25 12:02:03;;;;;;;15.07;9.13;;;;;;;18.06;55.61;102414.47;4943764;28;20062;-69
2023/05/25 12:04:31;;;;;;;14.88;8.15;;;;;;;18.19;56.29;102416.59;4970787;28;20053;-69
2023/05/25 12:07:02;;;;;;;13.60;7.95;;;;;;;18.33;55.12;102415.09;4957856;28;20042;-69
2023/05/25 12:09:27;;;;;;;16.63;8.32;;;;;;;18.17;55.03;102411.50;4957770;28;20521;-69
2023/05/25 12:11:53;;;;;;;13.40;7.70;;;;;;;18.33;54.66;102408.03;4961711;28;20385;-70
2023/05/25 12:14:19;;;;;;;14.55;6.80;;;;;;;18.29;55.60;102412.81;4962026;28;20051;-70
2023/05/25 12:16:45;;;;;;;14.07;7.00;;;;;;;18.49;56.34;102409.78;4963494;28;20034;-69
2023/05/25 12:19:11;;;;;;;14.07;6.43;;;;;;;18.32;54.42;102408.22;4958395;28;20125;-69
2023/05/25 12:21:39;;;;;;;10.60;6.45;;;;;;;18.26;54.16;102401.81;4970671;28;20564;-69